sensor_id;sensor_type;location;lat;lon;timestamp;pressure;altitude;pressure_sealevel;temperature;humidity
74544;BME280;63016;55.030;38.710;2024-02-04T00:00:43;97071.72;;;0.92;64.25
74544;BME280;63016;55.030;38.710;2024-02-04T00:03:09;97061.47;;;0.92;64.77
74544;BME280;63016;55.030;38.710;2024-02-04T00:05:34;97044.13;;;0.94;64.49
74544;BME280;63016;55.030;38.710;2024-02-04T00:08:00;97044.31;;;0.92;64.46
74544;BME280;63016;55.030;38.710;2024-02-04T00:10:25;97032.09;;;0.94;64.01
74544;BME280;63016;55.030;38.710;2024-02-04T00:12:52;97028.72;;;0.94;64.59
74544;BME280;63016;55.030;38.710;2024-02-04T00:15:17;97032.28;;;0.93;64.45
74544;BME280;63016;55.030;38.710;2024-02-04T00:17:44;97025.63;;;0.98;64.29
74544;BME280;63016;55.030;38.710;2024-02-04T00:20:10;97029.78;;;0.99;64.46
74544;BME280;63016;55.030;38.710;2024-02-04T00:22:35;97024.31;;;1.02;64.18
74544;BME280;63016;55.030;38.710;2024-02-04T00:25:01;97019.53;;;0.99;64.28
74544;BME280;63016;55.030;38.710;2024-02-04T00:27:33;97000.84;;;0.91;64.24
74544;BME280;63016;55.030;38.710;2024-02-04T00:29:59;97017.41;;;1.03;64.85
74544;BME280;63016;55.030;38.710;2024-02-04T00:32:25;97013.88;;;1.04;64.35
74544;BME280;63016;55.030;38.710;2024-02-04T00:34:52;96996.06;;;1.02;64.58
74544;BME280;63016;55.030;38.710;2024-02-04T00:37:17;96983.31;;;0.94;64.53
74544;BME280;63016;55.030;38.710;2024-02-04T00:39:43;96985.09;;;1.09;64.71
74544;BME280;63016;55.030;38.710;2024-02-04T00:42:08;96966.41;;;1.00;64.56
74544;BME280;63016;55.030;38.710;2024-02-04T00:44:34;96983.94;;;1.11;64.36
74544;BME280;63016;55.030;38.710;2024-02-04T00:46:59;96966.50;;;1.07;64.58
74544;BME280;63016;55.030;38.710;2024-02-04T00:49:25;96966.31;;;1.08;64.87
74544;BME280;63016;55.030;38.710;2024-02-04T00:51:52;96936.78;;;0.97;64.44
74544;BME280;63016;55.030;38.710;2024-02-04T00:54:17;96973.13;;;1.16;64.40
74544;BME280;63016;55.030;38.710;2024-02-04T00:56:43;96964.47;;;1.17;64.52
74544;BME280;63016;55.030;38.710;2024-02-04T00:59:09;96945.34;;;1.05;64.58
74544;BME280;63016;55.030;38.710;2024-02-04T01:01:35;96960.28;;;1.16;64.78
74544;BME280;63016;55.030;38.710;2024-02-04T01:04:00;96958.34;;;1.18;64.26
74544;BME280;63016;55.030;38.710;2024-02-04T01:06:26;96922.16;;;0.98;64.87
74544;BME280;63016;55.030;38.710;2024-02-04T01:08:53;96944.53;;;1.19;64.48
74544;BME280;63016;55.030;38.710;2024-02-04T01:11:18;96950.91;;;1.23;64.71
74544;BME280;63016;55.030;38.710;2024-02-04T01:13:44;96937.28;;;1.22;64.46
74544;BME280;63016;55.030;38.710;2024-02-04T01:16:10;96926.75;;;1.17;65.03
74544;BME280;63016;55.030;38.710;2024-02-04T01:18:35;96924.00;;;1.19;64.96
74544;BME280;63016;55.030;38.710;2024-02-04T01:21:01;96916.47;;;1.17;64.88
74544;BME280;63016;55.030;38.710;2024-02-04T01:23:26;96924.88;;;1.26;64.81
74544;BME280;63016;55.030;38.710;2024-02-04T01:25:52;96898.06;;;1.14;64.43
74544;BME280;63016;55.030;38.710;2024-02-04T01:28:17;96915.41;;;1.26;64.48
74544;BME280;63016;55.030;38.710;2024-02-04T01:30:43;96904.16;;;1.27;64.71
74544;BME280;63016;55.030;38.710;2024-02-04T01:33:08;96898.56;;;1.24;64.51
74544;BME280;63016;55.030;38.710;2024-02-04T01:35:34;96899.19;;;1.26;64.66
74544;BME280;63016;55.030;38.710;2024-02-04T01:38:00;96895.66;;;1.27;65.31
74544;BME280;63016;55.030;38.710;2024-02-04T01:40:25;96894.47;;;1.29;64.82
74544;BME280;63016;55.030;38.710;2024-02-04T01:42:51;96889.34;;;1.29;64.90
74544;BME280;63016;55.030;38.710;2024-02-04T01:45:17;96892.09;;;1.28;64.92
74544;BME280;63016;55.030;38.710;2024-02-04T01:47:42;96879.78;;;1.23;64.40
74544;BME280;63016;55.030;38.710;2024-02-04T01:50:09;96876.88;;;1.26;64.84
74544;BME280;63016;55.030;38.710;2024-02-04T01:52:37;96872.34;;;1.28;64.80
74544;BME280;63016;55.030;38.710;2024-02-04T01:55:05;96864.63;;;1.28;64.67
74544;BME280;63016;55.030;38.710;2024-02-04T01:57:32;96857.56;;;1.31;64.63
74544;BME280;63016;55.030;38.710;2024-02-04T01:59:58;96842.31;;;1.29;65.23
74544;BME280;63016;55.030;38.710;2024-02-04T02:02:25;96845.53;;;1.31;65.11
74544;BME280;63016;55.030;38.710;2024-02-04T02:04:51;96838.75;;;1.30;65.17
74544;BME280;63016;55.030;38.710;2024-02-04T02:07:18;96847.53;;;1.36;65.31
74544;BME280;63016;55.030;38.710;2024-02-04T02:09:46;96842.22;;;1.37;65.30
74544;BME280;63016;55.030;38.710;2024-02-04T02:12:18;96829.03;;;1.40;64.92
74544;BME280;63016;55.030;38.710;2024-02-04T02:14:48;96829.03;;;1.40;65.38
74544;BME280;63016;55.030;38.710;2024-02-04T02:17:16;96825.63;;;1.40;65.19
74544;BME280;63016;55.030;38.710;2024-02-04T02:19:54;96825.28;;;1.43;65.33
74544;BME280;63016;55.030;38.710;2024-02-04T02:22:31;96814.00;;;1.44;65.23
74544;BME280;63016;55.030;38.710;2024-02-04T02:25:02;96806.06;;;1.39;64.79
74544;BME280;63016;55.030;38.710;2024-02-04T02:27:30;96806.94;;;1.46;65.40
74544;BME280;63016;55.030;38.710;2024-02-04T02:29:55;96796.41;;;1.41;65.06
74544;BME280;63016;55.030;38.710;2024-02-04T02:32:21;96805.31;;;1.45;65.57
74544;BME280;63016;55.030;38.710;2024-02-04T02:34:47;96802.75;;;1.45;65.47
74544;BME280;63016;55.030;38.710;2024-02-04T02:37:20;96799.03;;;1.47;65.09
74544;BME280;63016;55.030;38.710;2024-02-04T02:42:46;96780.69;;;1.50;64.90
74544;BME280;63016;55.030;38.710;2024-02-04T02:45:12;96760.69;;;1.46;65.33
74544;BME280;63016;55.030;38.710;2024-02-04T02:47:39;96754.31;;;1.42;65.24
74544;BME280;63016;55.030;38.710;2024-02-04T02:50:06;96748.44;;;1.48;65.85
74544;BME280;63016;55.030;38.710;2024-02-04T02:52:32;96757.38;;;1.52;65.27
74544;BME280;63016;55.030;38.710;2024-02-04T02:54:57;96750.91;;;1.56;64.78
74544;BME280;63016;55.030;38.710;2024-02-04T02:57:23;96743.75;;;1.51;65.07
74544;BME280;63016;55.030;38.710;2024-02-04T02:59:49;96717.16;;;1.38;65.46
74544;BME280;63016;55.030;38.710;2024-02-04T03:02:14;96727.09;;;1.47;65.21
74544;BME280;63016;55.030;38.710;2024-02-04T03:04:40;96742.78;;;1.59;65.45
74544;BME280;63016;55.030;38.710;2024-02-04T03:07:05;96726.53;;;1.52;65.54
74544;BME280;63016;55.030;38.710;2024-02-04T03:09:33;96718.03;;;1.51;65.33
74544;BME280;63016;55.030;38.710;2024-02-04T03:11:58;96727.81;;;1.63;65.34
74544;BME280;63016;55.030;38.710;2024-02-04T03:14:24;96727.00;;;1.62;65.02
74544;BME280;63016;55.030;38.710;2024-02-04T03:16:50;96717.72;;;1.61;65.45
74544;BME280;63016;55.030;38.710;2024-02-04T03:19:15;96729.81;;;1.67;65.32
74544;BME280;63016;55.030;38.710;2024-02-04T03:21:41;96719.34;;;1.69;65.52
74544;BME280;63016;55.030;38.710;2024-02-04T03:24:06;96726.88;;;1.70;65.51
74544;BME280;63016;55.030;38.710;2024-02-04T03:26:32;96709.88;;;1.69;65.30
74544;BME280;63016;55.030;38.710;2024-02-04T03:28:57;96706.88;;;1.66;65.40
74544;BME280;63016;55.030;38.710;2024-02-04T03:31:24;96711.50;;;1.77;65.20
74544;BME280;63016;55.030;38.710;2024-02-04T03:33:50;96701.22;;;1.77;65.28
74544;BME280;63016;55.030;38.710;2024-02-04T03:36:19;96700.06;;;1.79;65.30
74544;BME280;63016;55.030;38.710;2024-02-04T03:38:45;96670.47;;;1.62;65.51
74544;BME280;63016;55.030;38.710;2024-02-04T03:41:11;96659.00;;;1.58;65.40
74544;BME280;63016;55.030;38.710;2024-02-04T03:43:37;96699.66;;;1.83;65.91
74544;BME280;63016;55.030;38.710;2024-02-04T03:46:02;96663.78;;;1.68;65.28
74544;BME280;63016;55.030;38.710;2024-02-04T03:48:28;96687.44;;;1.85;65.33
74544;BME280;63016;55.030;38.710;2024-02-04T03:50:54;96680.28;;;1.80;65.71
74544;BME280;63016;55.030;38.710;2024-02-04T03:53:20;96690.19;;;1.83;65.85
74544;BME280;63016;55.030;38.710;2024-02-04T03:55:48;96688.03;;;1.87;65.84
74544;BME280;63016;55.030;38.710;2024-02-04T03:58:14;96679.88;;;1.83;66.19
74544;BME280;63016;55.030;38.710;2024-02-04T04:00:39;96665.22;;;1.77;66.07
74544;BME280;63016;55.030;38.710;2024-02-04T04:03:05;96679.75;;;1.91;65.51
74544;BME280;63016;55.030;38.710;2024-02-04T04:05:30;96680.34;;;1.93;66.00
74544;BME280;63016;55.030;38.710;2024-02-04T04:07:56;96678.38;;;1.95;65.87
74544;BME280;63016;55.030;38.710;2024-02-04T04:10:21;96677.41;;;1.96;66.01
74544;BME280;63016;55.030;38.710;2024-02-04T04:12:47;96675.63;;;1.97;65.56
74544;BME280;63016;55.030;38.710;2024-02-04T04:15:13;96671.66;;;1.94;66.03
74544;BME280;63016;55.030;38.710;2024-02-04T04:17:38;96665.53;;;1.95;65.80
74544;BME280;63016;55.030;38.710;2024-02-04T04:20:06;96664.53;;;1.96;65.65
74544;BME280;63016;55.030;38.710;2024-02-04T04:22:32;96671.88;;;1.99;66.19
74544;BME280;63016;55.030;38.710;2024-02-04T04:24:58;96666.75;;;1.99;66.19
74544;BME280;63016;55.030;38.710;2024-02-04T04:27:23;96648.31;;;1.89;66.02
74544;BME280;63016;55.030;38.710;2024-02-04T04:29:49;96669.34;;;2.06;65.86
74544;BME280;63016;55.030;38.710;2024-02-04T04:32:14;96662.63;;;2.05;66.03
74544;BME280;63016;55.030;38.710;2024-02-04T04:34:40;96667.97;;;2.10;65.95
74544;BME280;63016;55.030;38.710;2024-02-04T04:37:06;96673.91;;;2.11;66.16
74544;BME280;63016;55.030;38.710;2024-02-04T04:39:32;96651.13;;;2.08;66.03
74544;BME280;63016;55.030;38.710;2024-02-04T04:41:57;96649.19;;;2.10;66.09
74544;BME280;63016;55.030;38.710;2024-02-04T04:44:23;96651.97;;;2.15;66.15
74544;BME280;63016;55.030;38.710;2024-02-04T04:46:48;96647.25;;;2.18;66.27
74544;BME280;63016;55.030;38.710;2024-02-04T04:49:14;96649.81;;;2.18;66.04
74544;BME280;63016;55.030;38.710;2024-02-04T04:51:44;96643.28;;;2.16;66.33
74544;BME280;63016;55.030;38.710;2024-02-04T04:54:11;96650.03;;;2.23;66.05
74544;BME280;63016;55.030;38.710;2024-02-04T04:56:40;96647.84;;;2.20;66.48
74544;BME280;63016;55.030;38.710;2024-02-04T04:59:07;96652.22;;;2.26;66.10
74544;BME280;63016;55.030;38.710;2024-02-04T05:01:33;96647.84;;;2.27;66.09
74544;BME280;63016;55.030;38.710;2024-02-04T05:03:58;96651.03;;;2.29;66.40
74544;BME280;63016;55.030;38.710;2024-02-04T05:06:24;96647.47;;;2.30;66.17
74544;BME280;63016;55.030;38.710;2024-02-04T05:08:49;96616.34;;;2.12;66.49
74544;BME280;63016;55.030;38.710;2024-02-04T05:11:15;96642.13;;;2.31;66.36
74544;BME280;63016;55.030;38.710;2024-02-04T05:13:40;96645.91;;;2.36;65.98
74544;BME280;63016;55.030;38.710;2024-02-04T05:16:06;96637.03;;;2.38;66.66
74544;BME280;63016;55.030;38.710;2024-02-04T05:18:31;96612.25;;;2.24;66.38
74544;BME280;63016;55.030;38.710;2024-02-04T05:20:57;96601.16;;;2.23;66.02
74544;BME280;63016;55.030;38.710;2024-02-04T05:23:23;96609.69;;;2.24;66.20
74544;BME280;63016;55.030;38.710;2024-02-04T05:25:48;96617.03;;;2.34;66.76
74544;BME280;63016;55.030;38.710;2024-02-04T05:28:14;96623.59;;;2.43;66.46
74544;BME280;63016;55.030;38.710;2024-02-04T05:30:39;96625.75;;;2.46;66.35
74544;BME280;63016;55.030;38.710;2024-02-04T05:33:05;96592.25;;;2.26;66.59
74544;BME280;63016;55.030;38.710;2024-02-04T05:35:31;96607.75;;;2.46;66.56
74544;BME280;63016;55.030;38.710;2024-02-04T05:37:57;96616.47;;;2.51;66.21
74544;BME280;63016;55.030;38.710;2024-02-04T05:40:22;96607.94;;;2.51;66.52
74544;BME280;63016;55.030;38.710;2024-02-04T05:42:48;96570.91;;;2.32;66.71
74544;BME280;63016;55.030;38.710;2024-02-04T05:45:13;96605.00;;;2.54;66.43
74544;BME280;63016;55.030;38.710;2024-02-04T05:47:39;96574.50;;;2.44;66.43
74544;BME280;63016;55.030;38.710;2024-02-04T05:50:05;96603.81;;;2.63;66.83
74544;BME280;63016;55.030;38.710;2024-02-04T05:52:31;96599.84;;;2.61;66.45
74544;BME280;63016;55.030;38.710;2024-02-04T05:54:56;96605.81;;;2.68;66.54
74544;BME280;63016;55.030;38.710;2024-02-04T05:57:22;96595.09;;;2.64;66.65
74544;BME280;63016;55.030;38.710;2024-02-04T05:59:47;96590.38;;;2.61;66.38
74544;BME280;63016;55.030;38.710;2024-02-04T06:02:14;96587.00;;;2.67;66.57
74544;BME280;63016;55.030;38.710;2024-02-04T06:04:39;96584.81;;;2.64;66.23
74544;BME280;63016;55.030;38.710;2024-02-04T06:07:05;96599.88;;;2.74;66.70
74544;BME280;63016;55.030;38.710;2024-02-04T06:09:33;96593.72;;;2.75;66.46
74544;BME280;63016;55.030;38.710;2024-02-04T06:11:58;96593.56;;;2.76;66.50
74544;BME280;63016;55.030;38.710;2024-02-04T06:14:24;96590.78;;;2.78;66.54
74544;BME280;63016;55.030;38.710;2024-02-04T06:16:49;96588.00;;;2.79;66.67
74544;BME280;63016;55.030;38.710;2024-02-04T06:19:15;96587.03;;;2.80;66.82
74544;BME280;63016;55.030;38.710;2024-02-04T06:21:40;96596.53;;;2.87;66.68
74544;BME280;63016;55.030;38.710;2024-02-04T06:24:06;96565.03;;;2.71;66.61
74544;BME280;63016;55.030;38.710;2024-02-04T06:26:32;96546.81;;;2.66;67.04
74544;BME280;63016;55.030;38.710;2024-02-04T06:28:57;96582.66;;;2.94;66.59
74544;BME280;63016;55.030;38.710;2024-02-04T06:31:23;96588.19;;;2.98;66.90
74544;BME280;63016;55.030;38.710;2024-02-04T06:33:48;96579.09;;;2.95;66.70
74544;BME280;63016;55.030;38.710;2024-02-04T06:36:14;96582.06;;;2.99;67.00
74544;BME280;63016;55.030;38.710;2024-02-04T06:38:40;96591.38;;;3.06;67.40
74544;BME280;63016;55.030;38.710;2024-02-04T06:41:05;96552.53;;;2.95;67.04
74544;BME280;63016;55.030;38.710;2024-02-04T06:43:31;96597.50;;;3.12;66.91
74544;BME280;63016;55.030;38.710;2024-02-04T06:45:57;96585.22;;;3.14;67.37
74544;BME280;63016;55.030;38.710;2024-02-04T06:48:23;96578.69;;;3.25;67.43
74544;BME280;63016;55.030;38.710;2024-02-04T06:50:48;96572.53;;;3.26;67.22
74544;BME280;63016;55.030;38.710;2024-02-04T06:53:14;96587.19;;;3.32;67.45
74544;BME280;63016;55.030;38.710;2024-02-04T06:55:40;96587.19;;;3.39;67.10
74544;BME280;63016;55.030;38.710;2024-02-04T06:58:05;96577.28;;;3.35;67.21
74544;BME280;63016;55.030;38.710;2024-02-04T07:00:31;96588.97;;;3.45;66.97
74544;BME280;63016;55.030;38.710;2024-02-04T07:02:56;96586.56;;;3.50;67.20
74544;BME280;63016;55.030;38.710;2024-02-04T07:05:22;96584.38;;;3.53;67.26
74544;BME280;63016;55.030;38.710;2024-02-04T07:07:49;96586.34;;;3.58;66.83
74544;BME280;63016;55.030;38.710;2024-02-04T07:10:15;96595.25;;;3.62;66.82
74544;BME280;63016;55.030;38.710;2024-02-04T07:12:41;96577.03;;;3.50;67.16
74544;BME280;63016;55.030;38.710;2024-02-04T07:15:06;96603.16;;;3.67;67.03
74544;BME280;63016;55.030;38.710;2024-02-04T07:17:33;96607.94;;;3.70;67.02
74544;BME280;63016;55.030;38.710;2024-02-04T07:20:00;96602.78;;;3.70;66.97
74544;BME280;63016;55.030;38.710;2024-02-04T07:22:25;96578.41;;;3.53;67.28
74544;BME280;63016;55.030;38.710;2024-02-04T07:24:51;96607.91;;;3.77;67.11
74544;BME280;63016;55.030;38.710;2024-02-04T07:27:17;96578.00;;;3.63;67.07
74544;BME280;63016;55.030;38.710;2024-02-04T07:29:42;96585.13;;;3.67;67.13
74544;BME280;63016;55.030;38.710;2024-02-04T07:32:08;96613.06;;;3.83;67.20
74544;BME280;63016;55.030;38.710;2024-02-04T07:34:34;96616.03;;;3.87;66.98
74544;BME280;63016;55.030;38.710;2024-02-04T07:36:59;96615.81;;;3.89;67.16
74544;BME280;63016;55.030;38.710;2024-02-04T07:39:25;96605.13;;;3.78;67.37
74544;BME280;63016;55.030;38.710;2024-02-04T07:41:50;96617.19;;;3.98;67.14
74544;BME280;63016;55.030;38.710;2024-02-04T07:44:16;96615.59;;;3.97;67.13
74544;BME280;63016;55.030;38.710;2024-02-04T07:46:42;96614.78;;;4.03;67.10
74544;BME280;63016;55.030;38.710;2024-02-04T07:49:08;96610.78;;;4.07;67.47
74544;BME280;63016;55.030;38.710;2024-02-04T07:51:33;96622.28;;;4.11;67.16
74544;BME280;63016;55.030;38.710;2024-02-04T07:54:00;96628.81;;;4.13;66.93
74544;BME280;63016;55.030;38.710;2024-02-04T07:56:26;96628.59;;;4.15;67.04
74544;BME280;63016;55.030;38.710;2024-02-04T07:58:52;96640.31;;;4.18;66.98
74544;BME280;63016;55.030;38.710;2024-02-04T08:01:18;96619.31;;;4.07;67.13
74544;BME280;63016;55.030;38.710;2024-02-04T08:03:44;96650.44;;;4.19;67.03
74544;BME280;63016;55.030;38.710;2024-02-04T08:06:12;96662.31;;;4.20;66.96
74544;BME280;63016;55.030;38.710;2024-02-04T08:08:37;96640.56;;;4.03;66.92
74544;BME280;63016;55.030;38.710;2024-02-04T08:11:03;96654.44;;;4.08;67.29
74544;BME280;63016;55.030;38.710;2024-02-04T08:13:28;96679.00;;;4.24;67.24
74544;BME280;63016;55.030;38.710;2024-02-04T08:15:54;96683.16;;;4.25;67.13
74544;BME280;63016;55.030;38.710;2024-02-04T08:18:19;96678.81;;;4.26;67.32
74544;BME280;63016;55.030;38.710;2024-02-04T08:20:45;96683.34;;;4.24;66.93
74544;BME280;63016;55.030;38.710;2024-02-04T08:23:10;96690.88;;;4.25;66.61
74544;BME280;63016;55.030;38.710;2024-02-04T08:25:36;96675.44;;;4.19;66.95
74544;BME280;63016;55.030;38.710;2024-02-04T08:28:02;96693.69;;;4.24;66.85
74544;BME280;63016;55.030;38.710;2024-02-04T08:30:27;96701.03;;;4.27;66.76
74544;BME280;63016;55.030;38.710;2024-02-04T08:32:53;96696.44;;;4.29;66.36
74544;BME280;63016;55.030;38.710;2024-02-04T08:35:19;96700.41;;;4.25;66.51
74544;BME280;63016;55.030;38.710;2024-02-04T08:37:44;96700.81;;;4.28;66.36
74544;BME280;63016;55.030;38.710;2024-02-04T08:40:10;96682.22;;;4.13;66.57
74544;BME280;63016;55.030;38.710;2024-02-04T08:42:36;96707.38;;;4.31;66.83
74544;BME280;63016;55.030;38.710;2024-02-04T08:45:02;96718.66;;;4.30;66.73
74544;BME280;63016;55.030;38.710;2024-02-04T08:47:27;96711.75;;;4.30;66.69
74544;BME280;63016;55.030;38.710;2024-02-04T08:49:53;96709.78;;;4.26;66.79
74544;BME280;63016;55.030;38.710;2024-02-04T08:52:18;96727.00;;;4.32;66.81
74544;BME280;63016;55.030;38.710;2024-02-04T08:54:44;96732.75;;;4.34;66.78
74544;BME280;63016;55.030;38.710;2024-02-04T08:57:09;96731.56;;;4.36;67.11
74544;BME280;63016;55.030;38.710;2024-02-04T08:59:35;96737.31;;;4.38;66.96
74544;BME280;63016;55.030;38.710;2024-02-04T09:02:01;96718.88;;;4.28;66.75
74544;BME280;63016;55.030;38.710;2024-02-04T09:04:26;96741.66;;;4.45;66.86
74544;BME280;63016;55.030;38.710;2024-02-04T09:06:52;96730.56;;;4.37;66.64
74544;BME280;63016;55.030;38.710;2024-02-04T09:09:17;96752.78;;;4.45;66.65
74544;BME280;63016;55.030;38.710;2024-02-04T09:11:43;96732.38;;;4.30;66.77
74544;BME280;63016;55.030;38.710;2024-02-04T09:14:08;96747.63;;;4.45;66.25
74544;BME280;63016;55.030;38.710;2024-02-04T09:16:37;96728.63;;;4.26;66.86
74544;BME280;63016;55.030;38.710;2024-02-04T09:19:03;96750.41;;;4.44;66.25
74544;BME280;63016;55.030;38.710;2024-02-04T09:21:28;96764.88;;;4.45;66.65
74544;BME280;63016;55.030;38.710;2024-02-04T09:23:54;96773.63;;;4.44;66.66
74544;BME280;63016;55.030;38.710;2024-02-04T09:26:19;96744.91;;;4.27;66.77
74544;BME280;63016;55.030;38.710;2024-02-04T09:28:45;96750.44;;;4.30;67.06
74544;BME280;63016;55.030;38.710;2024-02-04T09:31:10;96778.41;;;4.47;67.30
74544;BME280;63016;55.030;38.710;2024-02-04T09:33:36;96766.28;;;4.47;66.60
74544;BME280;63016;55.030;38.710;2024-02-04T09:36:03;96755.19;;;4.33;66.83
74544;BME280;63016;55.030;38.710;2024-02-04T09:38:29;96781.38;;;4.50;66.74
74544;BME280;63016;55.030;38.710;2024-02-04T09:40:55;96787.31;;;4.51;66.84
74544;BME280;63016;55.030;38.710;2024-02-04T09:43:20;96783.75;;;4.52;66.37
74544;BME280;63016;55.030;38.710;2024-02-04T09:45:47;96797.25;;;4.47;66.52
74544;BME280;63016;55.030;38.710;2024-02-04T09:48:19;96815.94;;;4.43;66.34
74544;BME280;63016;55.030;38.710;2024-02-04T09:50:45;96818.91;;;4.46;66.01
74544;BME280;63016;55.030;38.710;2024-02-04T09:53:14;96819.09;;;4.45;66.36
74544;BME280;63016;55.030;38.710;2024-02-04T09:55:40;96814.56;;;4.40;66.29
74544;BME280;63016;55.030;38.710;2024-02-04T09:58:07;96814.34;;;4.35;66.34
74544;BME280;63016;55.030;38.710;2024-02-04T10:00:33;96815.16;;;4.29;66.65
74544;BME280;63016;55.030;38.710;2024-02-04T10:02:59;96822.91;;;4.35;66.53
74544;BME280;63016;55.030;38.710;2024-02-04T10:05:26;96826.47;;;4.34;66.68
74544;BME280;63016;55.030;38.710;2024-02-04T10:07:51;96825.88;;;4.32;66.84
74544;BME280;63016;55.030;38.710;2024-02-04T10:10:17;96814.75;;;4.25;66.39
74544;BME280;63016;55.030;38.710;2024-02-04T10:12:43;96834.81;;;4.36;66.86
74544;BME280;63016;55.030;38.710;2024-02-04T10:15:09;96841.97;;;4.41;66.95
74544;BME280;63016;55.030;38.710;2024-02-04T10:17:35;96843.31;;;4.44;66.90
74544;BME280;63016;55.030;38.710;2024-02-04T10:20:01;96851.69;;;4.46;67.06
74544;BME280;63016;55.030;38.710;2024-02-04T10:22:28;96834.00;;;4.43;66.83
74544;BME280;63016;55.030;38.710;2024-02-04T10:25:04;96837.16;;;4.51;66.70
74544;BME280;63016;55.030;38.710;2024-02-04T10:27:31;96841.13;;;4.54;66.88
74544;BME280;63016;55.030;38.710;2024-02-04T10:29:56;96839.16;;;4.56;66.70
74544;BME280;63016;55.030;38.710;2024-02-04T10:32:22;96840.53;;;4.52;67.23
74544;BME280;63016;55.030;38.710;2024-02-04T10:34:48;96864.13;;;4.69;66.78
74544;BME280;63016;55.030;38.710;2024-02-04T10:37:13;96849.25;;;4.71;66.35
74544;BME280;63016;55.030;38.710;2024-02-04T10:39:39;96827.41;;;4.60;66.88
74544;BME280;63016;55.030;38.710;2024-02-04T10:42:06;96842.28;;;4.71;66.63
74544;BME280;63016;55.030;38.710;2024-02-04T10:44:35;96856.97;;;4.84;66.56
74544;BME280;63016;55.030;38.710;2024-02-04T10:47:10;96857.31;;;4.87;66.73
74544;BME280;63016;55.030;38.710;2024-02-04T10:49:45;96864.09;;;4.88;66.25
74544;BME280;63016;55.030;38.710;2024-02-04T10:52:12;96862.88;;;4.91;66.33
74544;BME280;63016;55.030;38.710;2024-02-04T10:54:39;96875.00;;;4.90;65.94
74544;BME280;63016;55.030;38.710;2024-02-04T10:57:12;96879.19;;;4.92;65.92
74544;BME280;63016;55.030;38.710;2024-02-04T10:59:38;96845.88;;;4.70;66.04
74544;BME280;63016;55.030;38.710;2024-02-04T11:02:05;96883.75;;;4.89;66.08
74544;BME280;63016;55.030;38.710;2024-02-04T11:04:32;96886.13;;;4.91;66.21
74544;BME280;63016;55.030;38.710;2024-02-04T11:07:00;96880.78;;;4.86;66.17
74544;BME280;63016;55.030;38.710;2024-02-04T11:09:27;96882.38;;;4.94;66.05
74544;BME280;63016;55.030;38.710;2024-02-04T11:11:55;96871.25;;;4.86;65.93
74544;BME280;63016;55.030;38.710;2024-02-04T11:14:22;96891.88;;;5.00;66.36
74544;BME280;63016;55.030;38.710;2024-02-04T11:19:45;96914.09;;;5.14;66.33
74544;BME280;63016;55.030;38.710;2024-02-04T11:27:24;96898.78;;;5.12;65.26
74544;BME280;63016;55.030;38.710;2024-02-04T11:29:51;96913.50;;;5.12;65.29
74544;BME280;63016;55.030;38.710;2024-02-04T11:32:17;96908.16;;;5.00;65.17
74544;BME280;63016;55.030;38.710;2024-02-04T11:34:44;96914.13;;;5.01;65.07
74544;BME280;63016;55.030;38.710;2024-02-04T11:37:18;96918.91;;;4.97;64.73
74544;BME280;63016;55.030;38.710;2024-02-04T11:39:51;96923.88;;;4.92;64.69
74544;BME280;63016;55.030;38.710;2024-02-04T11:42:18;96929.88;;;4.86;65.04
74544;BME280;63016;55.030;38.710;2024-02-04T11:44:44;96932.47;;;4.79;64.81
74544;BME280;63016;55.030;38.710;2024-02-04T11:47:10;96936.63;;;4.74;64.97
74544;BME280;63016;55.030;38.710;2024-02-04T11:49:36;96939.63;;;4.71;64.54
74544;BME280;63016;55.030;38.710;2024-02-04T11:52:02;96935.06;;;4.66;64.92
74544;BME280;63016;55.030;38.710;2024-02-04T11:54:28;96928.91;;;4.60;65.03
74544;BME280;63016;55.030;38.710;2024-02-04T11:56:53;96943.19;;;4.63;64.96
74544;BME280;63016;55.030;38.710;2024-02-04T11:59:20;96921.97;;;4.48;65.21
74544;BME280;63016;55.030;38.710;2024-02-04T12:01:48;96954.53;;;4.62;65.45
74544;BME280;63016;55.030;38.710;2024-02-04T12:04:15;96953.53;;;4.63;65.18
74544;BME280;63016;55.030;38.710;2024-02-04T12:06:42;96953.13;;;4.66;65.74
74544;BME280;63016;55.030;38.710;2024-02-04T12:09:08;96949.97;;;4.71;65.27
74544;BME280;63016;55.030;38.710;2024-02-04T12:11:36;96938.25;;;4.61;65.40
74544;BME280;63016;55.030;38.710;2024-02-04T12:14:04;96946.59;;;4.70;65.48
74544;BME280;63016;55.030;38.710;2024-02-04T12:16:31;96949.34;;;4.75;65.44
74544;BME280;63016;55.030;38.710;2024-02-04T12:18:58;96955.31;;;4.76;64.94
74544;BME280;63016;55.030;38.710;2024-02-04T12:21:25;96950.94;;;4.76;64.97
74544;BME280;63016;55.030;38.710;2024-02-04T12:23:51;96957.69;;;4.77;65.42
74544;BME280;63016;55.030;38.710;2024-02-04T12:26:17;96968.81;;;4.78;64.93
74544;BME280;63016;55.030;38.710;2024-02-04T12:28:42;96969.44;;;4.80;65.29
74544;BME280;63016;55.030;38.710;2024-02-04T12:31:16;96969.44;;;4.80;64.95
74544;BME280;63016;55.030;38.710;2024-02-04T12:33:43;96969.59;;;4.78;65.02
74544;BME280;63016;55.030;38.710;2024-02-04T12:36:09;96974.38;;;4.81;65.46
74544;BME280;63016;55.030;38.710;2024-02-04T12:38:35;96977.75;;;4.82;65.45
74544;BME280;63016;55.030;38.710;2024-02-04T12:41:02;96979.34;;;4.83;65.01
74544;BME280;63016;55.030;38.710;2024-02-04T12:43:28;96982.72;;;4.83;65.31
74544;BME280;63016;55.030;38.710;2024-02-04T12:45:56;96984.91;;;4.80;65.47
74544;BME280;63016;55.030;38.710;2024-02-04T12:48:23;96989.50;;;4.84;65.40
74544;BME280;63016;55.030;38.710;2024-02-04T12:50:51;96994.44;;;4.86;65.22
74544;BME280;63016;55.030;38.710;2024-02-04T12:53:19;96979.75;;;4.80;65.15
74544;BME280;63016;55.030;38.710;2024-02-04T12:55:44;96989.84;;;4.88;65.27
74544;BME280;63016;55.030;38.710;2024-02-04T12:58:11;96991.06;;;4.85;64.95
74544;BME280;63016;55.030;38.710;2024-02-04T13:00:39;96998.81;;;4.85;64.62
74544;BME280;63016;55.030;38.710;2024-02-04T13:03:07;96994.06;;;4.76;64.65
74544;BME280;63016;55.030;38.710;2024-02-04T13:05:39;97002.78;;;4.81;64.59